Time;durP1;ratioP1;P1;durP2;ratioP2;P2;SDS_P1;SDS_P2;PMS_P1;PMS_P2;Temp;Humidity;BMP_temperature;BMP_pressure;BME280_temperature;BME280_humidity;BME280_pressure;Samples;Min_cycle;Max_cycle;Signal;HPM_P1;HPM_P2
2021/05/22 00:00:17;;;;;;;3.10;1.30;;;;;;;9.01;87.80;95808.09;5015689;28;20163;-58
2021/05/22 00:02:43;;;;;;;1.00;1.00;;;;;;;8.88;88.71;95810.91;5014525;28;20029;-58
2021/05/22 00:05:09;;;;;;;2.88;1.08;;;;;;;9.00;87.11;95800.34;5015332;28;20017;-58
2021/05/22 00:07:35;;;;;;;0.80;0.80;;;;;;;9.08;87.37;95790.03;5015536;28;20116;-58
2021/05/22 00:10:02;;;;;;;1.05;1.05;;;;;;;9.13;86.81;95790.44;5013615;28;20379;-59
2021/05/22 00:12:27;;;;;;;3.65;1.13;;;;;;;9.10;86.69;95801.22;5015887;28;20065;-59
2021/05/22 00:14:53;;;;;;;4.47;0.90;;;;;;;9.14;86.81;95789.50;5002064;28;20461;-59
2021/05/22 00:17:18;;;;;;;1.10;1.10;;;;;;;9.24;86.50;95775.59;5011061;28;20026;-59
2021/05/22 00:19:44;;;;;;;2.58;0.80;;;;;;;9.22;86.50;95764.38;5007079;28;20030;-58
2021/05/22 00:22:10;;;;;;;0.93;0.90;;;;;;;9.22;85.84;95761.75;5009606;28;20032;-59
2021/05/22 00:24:35;;;;;;;1.23;0.90;;;;;;;9.19;85.46;95767.28;5005989;28;20026;-58
2021/05/22 00:27:01;;;;;;;0.98;0.93;;;;;;;9.26;85.06;95757.91;5012276;28;20040;-59
2021/05/22 00:29:27;;;;;;;1.30;1.20;;;;;;;9.04;85.81;95764.97;5009855;28;20559;-59
2021/05/22 00:31:53;;;;;;;1.65;1.10;;;;;;;8.93;85.93;95783.44;5014742;28;20619;-59
2021/05/22 00:34:18;;;;;;;1.17;1.10;;;;;;;8.99;85.74;95798.69;5014532;28;20025;-58
2021/05/22 00:36:44;;;;;;;1.67;1.08;;;;;;;8.91;85.75;95799.31;5016557;28;20026;-59
2021/05/22 00:39:09;;;;;;;1.75;1.08;;;;;;;8.81;88.17;95798.41;5016931;28;20565;-58
2021/05/22 00:41:35;;;;;;;4.50;1.40;;;;;;;8.71;87.52;95807.06;5014135;28;20025;-58
2021/05/22 00:44:00;;;;;;;1.85;1.30;;;;;;;8.85;86.14;95798.03;5009365;28;20122;-59
2021/05/22 00:46:26;;;;;;;2.05;1.20;;;;;;;8.97;85.61;95803.25;5010923;28;20505;-59
2021/05/22 00:48:51;;;;;;;1.30;1.20;;;;;;;8.98;80.51;95808.34;5000899;28;20439;-58
2021/05/22 00:51:17;;;;;;;4.70;1.20;;;;;;;8.98;80.13;95813.59;5008316;28;20052;-58
2021/05/22 00:53:43;;;;;;;2.35;1.20;;;;;;;8.88;77.84;95796.97;5009550;28;20081;-58
2021/05/22 00:56:09;;;;;;;1.20;1.20;;;;;;;8.52;77.02;95794.66;5010850;28;20030;-57
2021/05/22 00:58:35;;;;;;;1.45;1.35;;;;;;;8.38;80.76;95784.41;5015869;28;20028;-58
2021/05/22 01:01:03;;;;;;;2.17;1.20;;;;;;;8.19;77.70;95780.69;5016415;28;20030;-57
2021/05/22 01:03:34;;;;;;;2.50;1.30;;;;;;;8.19;78.68;95757.06;5004367;28;20478;-57
2021/05/22 01:06:16;;;;;;;4.78;1.27;;;;;;;8.22;78.63;95740.25;5002455;28;20033;-56
2021/05/22 01:08:50;;;;;;;3.30;1.42;;;;;;;8.17;79.45;95736.19;5011501;28;20456;-58
2021/05/22 01:11:25;;;;;;;1.40;1.35;;;;;;;8.00;81.35;95713.19;5011620;28;20034;-57
2021/05/22 01:13:59;;;;;;;1.63;1.52;;;;;;;7.98;83.36;95678.38;5015435;28;20057;-57
2021/05/22 01:16:25;;;;;;;1.77;1.50;;;;;;;7.98;83.28;95658.22;5010285;28;20026;-58
2021/05/22 01:18:54;;;;;;;1.67;1.50;;;;;;;8.02;82.69;95633.41;5011983;28;20025;-57
2021/05/22 01:21:20;;;;;;;1.42;1.40;;;;;;;7.89;83.12;95643.28;5005832;28;20144;-56
2021/05/22 01:23:57;;;;;;;6.78;1.30;;;;;;;7.89;81.84;95628.38;5010877;28;20029;-57
2021/05/22 01:26:25;;;;;;;1.42;1.40;;;;;;;7.90;82.82;95610.84;5004857;28;20015;-57
2021/05/22 01:28:51;;;;;;;1.25;1.25;;;;;;;7.88;82.73;95590.00;5011676;28;20018;-57
2021/05/22 01:31:18;;;;;;;1.30;1.30;;;;;;;7.80;81.90;95587.19;5012428;28;20018;-57
2021/05/22 01:33:44;;;;;;;1.40;1.30;;;;;;;7.85;82.98;95602.56;5015359;28;20034;-58
2021/05/22 01:36:09;;;;;;;2.92;1.40;;;;;;;7.92;81.79;95622.03;5016532;28;20516;-57
2021/05/22 01:38:35;;;;;;;2.10;1.50;;;;;;;8.02;80.36;95594.09;5010323;28;20068;-57
2021/05/22 01:41:01;;;;;;;1.45;1.30;;;;;;;8.23;80.60;95621.28;5012169;28;20013;-58
2021/05/22 01:43:27;;;;;;;5.18;1.73;;;;;;;8.02;82.71;95628.19;5013897;28;20124;-58
2021/05/22 01:45:54;;;;;;;2.22;1.40;;;;;;;7.63;84.39;95619.19;5013568;28;20041;-58
2021/05/22 01:48:24;;;;;;;3.70;1.38;;;;;;;7.38;85.54;95613.34;5003844;28;20339;-56
2021/05/22 01:50:57;;;;;;;2.10;1.52;;;;;;;7.43;84.28;95611.16;5015236;28;20053;-58
2021/05/22 01:53:23;;;;;;;1.60;1.50;;;;;;;7.39;85.48;95615.00;5004581;28;20029;-58
2021/05/22 01:55:50;;;;;;;1.90;1.75;;;;;;;7.48;87.15;95605.56;5015115;28;20041;-58
2021/05/22 01:58:16;;;;;;;2.35;1.50;;;;;;;7.52;87.39;95606.97;5019238;28;20505;-58
2021/05/22 02:00:44;;;;;;;4.93;1.50;;;;;;;7.50;87.03;95616.75;5018153;28;20034;-58
2021/05/22 02:03:22;;;;;;;1.38;1.25;;;;;;;7.53;86.58;95617.34;5020371;28;20021;-57
2021/05/22 02:05:48;;;;;;;1.58;1.48;;;;;;;7.56;87.57;95616.25;5015090;28;20109;-57
2021/05/22 02:08:19;;;;;;;1.60;1.50;;;;;;;7.77;86.98;95625.94;5014926;28;20022;-56
2021/05/22 02:10:47;;;;;;;1.77;1.70;;;;;;;7.84;86.36;95611.34;5013480;28;20368;-57
2021/05/22 02:13:13;;;;;;;1.67;1.58;;;;;;;7.70;85.88;95615.97;5007460;28;20026;-57
2021/05/22 02:15:41;;;;;;;1.48;1.40;;;;;;;7.59;86.32;95621.22;5009687;28;20019;-57
2021/05/22 02:18:09;;;;;;;4.30;1.48;;;;;;;7.60;86.76;95604.53;5000979;28;20045;-57
2021/05/22 02:20:37;;;;;;;1.50;1.40;;;;;;;7.69;86.50;95595.94;5016792;28;20030;-56
2021/05/22 02:23:05;;;;;;;3.00;1.40;;;;;;;7.77;86.59;95594.47;5008181;28;20057;-57
2021/05/22 02:25:31;;;;;;;5.40;1.67;;;;;;;7.67;86.84;95576.91;5016980;28;20500;-57
2021/05/22 02:28:00;;;;;;;6.07;1.40;;;;;;;7.60;86.64;95573.09;5005825;28;20022;-56
2021/05/22 02:30:26;;;;;;;1.55;1.45;;;;;;;7.56;86.40;95574.31;5018546;28;20033;-57
2021/05/22 02:32:52;;;;;;;2.28;1.50;;;;;;;7.56;85.97;95566.47;5017791;28;20461;-58
2021/05/22 02:35:20;;;;;;;1.65;1.55;;;;;;;7.59;85.75;95568.81;5017819;28;20030;-57
2021/05/22 02:37:52;;;;;;;1.75;1.60;;;;;;;7.48;87.72;95571.50;5015060;28;20036;-57
2021/05/22 02:40:23;;;;;;;1.67;1.58;;;;;;;7.33;88.62;95563.13;5010023;28;20018;-58
2021/05/22 02:42:59;;;;;;;2.30;1.70;;;;;;;7.27;89.35;95573.13;5013046;28;20026;-58
2021/05/22 02:45:27;;;;;;;1.70;1.50;;;;;;;7.30;88.50;95564.19;5012820;28;20026;-58
2021/05/22 02:47:56;;;;;;;3.03;1.40;;;;;;;7.24;88.37;95575.19;5008000;28;20109;-57
2021/05/22 02:50:22;;;;;;;6.25;1.90;;;;;;;7.11;88.99;95573.53;5007281;28;20022;-57
2021/05/22 02:52:49;;;;;;;3.75;1.90;;;;;;;7.07;88.91;95571.28;5021506;28;20088;-57
2021/05/22 02:55:15;;;;;;;4.75;1.75;;;;;;;7.15;88.40;95561.84;5015371;28;20114;-57
2021/05/22 02:57:43;;;;;;;1.67;1.55;;;;;;;7.21;88.20;95559.72;5018471;28;20053;-57
2021/05/22 03:00:09;;;;;;;2.00;1.67;;;;;;;7.20;88.55;95564.09;5017759;28;20029;-56
2021/05/22 03:02:37;;;;;;;2.05;1.80;;;;;;;7.27;88.47;95565.25;5017445;28;20030;-56
2021/05/22 03:05:04;;;;;;;1.42;1.42;;;;;;;7.24;88.54;95564.69;5012139;28;20064;-57
2021/05/22 03:07:31;;;;;;;1.83;1.73;;;;;;;7.20;89.05;95571.16;5012557;28;20018;-57
2021/05/22 03:09:56;;;;;;;1.60;1.50;;;;;;;7.23;88.39;95581.38;5011513;28;20029;-57
2021/05/22 03:12:27;;;;;;;1.80;1.70;;;;;;;7.24;87.95;95569.94;5016461;28;20021;-56
2021/05/22 03:14:53;;;;;;;3.70;1.58;;;;;;;7.23;88.15;95573.50;5014825;28;20402;-56
2021/05/22 03:17:19;;;;;;;4.65;1.60;;;;;;;7.23;88.00;95581.38;5003344;28;20144;-57
2021/05/22 03:19:44;;;;;;;1.70;1.60;;;;;;;7.19;88.19;95567.69;5004241;28;20030;-56
2021/05/22 03:22:10;;;;;;;2.67;1.65;;;;;;;7.22;87.94;95571.84;5009033;28;20030;-56
2021/05/22 03:24:35;;;;;;;3.20;2.20;;;;;;;7.24;87.84;95564.69;5003339;28;20030;-57
2021/05/22 03:27:01;;;;;;;2.08;1.98;;;;;;;7.17;88.17;95565.19;5009532;28;20022;-57
2021/05/22 03:29:27;;;;;;;2.05;1.95;;;;;;;7.13;88.92;95558.53;5011381;28;20493;-57
2021/05/22 03:31:52;;;;;;;3.38;2.67;;;;;;;7.05;89.06;95566.19;5009863;28;20023;-57
2021/05/22 03:34:18;;;;;;;3.22;2.65;;;;;;;7.02;88.68;95566.44;5013912;28;20121;-57
2021/05/22 03:36:45;;;;;;;3.10;2.50;;;;;;;7.20;88.17;95571.16;5016274;28;20026;-56
2021/05/22 03:39:10;;;;;;;2.83;2.58;;;;;;;7.27;87.01;95569.69;5013269;28;20097;-57
2021/05/22 03:41:36;;;;;;;2.88;2.50;;;;;;;7.29;86.75;95573.00;5010882;28;20620;-56
2021/05/22 03:44:01;;;;;;;3.20;2.70;;;;;;;7.32;86.91;95564.91;5011883;28;20418;-57
2021/05/22 03:46:27;;;;;;;3.47;2.40;;;;;;;7.43;85.83;95570.09;5005675;28;20021;-57
2021/05/22 03:48:53;;;;;;;2.60;1.70;;;;;;;7.31;86.35;95564.09;5004900;28;20045;-57
2021/05/22 03:51:18;;;;;;;1.80;1.70;;;;;;;7.33;86.73;95563.13;5008501;28;20026;-57
2021/05/22 03:53:44;;;;;;;2.40;1.35;;;;;;;7.15;87.00;95554.00;5007434;28;20030;-57
2021/05/22 03:56:09;;;;;;;1.70;1.60;;;;;;;7.14;86.93;95539.25;4999606;28;20080;-55
2021/05/22 03:58:35;;;;;;;1.77;1.67;;;;;;;7.06;87.27;95541.66;5006606;28;20544;-57
2021/05/22 04:01:01;;;;;;;4.63;1.75;;;;;;;6.92;87.95;95542.78;5011112;28;20097;-56
2021/05/22 04:03:26;;;;;;;1.80;1.70;;;;;;;6.80;89.20;95543.75;5020438;28;20026;-56
2021/05/22 04:05:52;;;;;;;2.13;1.85;;;;;;;6.73;89.19;95538.16;5003808;28;20548;-56
2021/05/22 04:08:17;;;;;;;2.65;2.47;;;;;;;6.77;89.39;95525.69;5012613;28;20028;-54
2021/05/22 04:10:44;;;;;;;2.88;2.35;;;;;;;6.81;89.23;95521.84;5016363;28;20025;-58
2021/05/22 04:13:09;;;;;;;2.40;2.30;;;;;;;6.86;89.01;95533.63;5013716;28;20033;-57
2021/05/22 04:15:35;;;;;;;3.42;2.08;;;;;;;6.88;89.08;95536.94;5015613;28;20018;-57
2021/05/22 04:18:00;;;;;;;2.28;2.17;;;;;;;6.87;88.81;95530.06;5015692;28;20018;-57
2021/05/22 04:20:26;;;;;;;2.13;1.92;;;;;;;6.87;88.90;95527.44;5015188;28;20029;-57
2021/05/22 04:22:52;;;;;;;2.65;1.70;;;;;;;6.91;88.27;95537.66;5008714;28;20034;-58
2021/05/22 04:25:17;;;;;;;3.97;2.00;;;;;;;6.88;88.59;95534.34;5008034;28;20029;-57
2021/05/22 04:27:43;;;;;;;2.42;1.85;;;;;;;6.85;88.79;95534.59;5014391;28;20084;-58
2021/05/22 04:30:09;;;;;;;2.03;1.85;;;;;;;6.79;89.69;95536.84;5010871;28;20072;-57
2021/05/22 04:32:35;;;;;;;4.97;1.70;;;;;;;6.81;90.12;95542.78;5015592;28;20080;-57
2021/05/22 04:35:01;;;;;;;4.60;2.10;;;;;;;6.78;89.19;95556.13;5016013;28;20034;-57
2021/05/22 04:37:26;;;;;;;2.90;1.92;;;;;;;6.80;89.11;95557.69;5015008;28;20026;-57
2021/05/22 04:39:52;;;;;;;1.70;1.60;;;;;;;6.88;89.18;95549.22;5016241;28;20022;-57
2021/05/22 04:42:17;;;;;;;3.20;1.90;;;;;;;6.98;88.65;95551.94;5015987;28;20490;-58
2021/05/22 04:44:43;;;;;;;1.77;1.67;;;;;;;7.11;88.31;95570.09;5014909;28;20074;-58
2021/05/22 04:47:08;;;;;;;2.75;1.67;;;;;;;7.17;87.44;95570.41;5015396;28;20119;-57
2021/05/22 04:49:34;;;;;;;2.00;1.85;;;;;;;7.19;87.08;95562.44;5015737;28;20026;-58
2021/05/22 04:52:00;;;;;;;1.70;1.60;;;;;;;7.15;87.55;95559.22;5016193;28;20033;-57
2021/05/22 04:54:25;;;;;;;2.72;1.95;;;;;;;7.02;88.73;95561.19;5006542;28;20050;-58
2021/05/22 04:56:51;;;;;;;2.72;2.30;;;;;;;6.92;89.39;95563.72;4998270;28;20556;-56
2021/05/22 04:59:16;;;;;;;1.95;1.85;;;;;;;7.01;89.19;95559.53;5011627;28;20045;-57
2021/05/22 05:01:42;;;;;;;2.00;1.80;;;;;;;7.05;88.91;95566.19;5014154;28;20026;-58
2021/05/22 05:04:08;;;;;;;1.80;1.70;;;;;;;7.03;88.13;95555.81;5013719;28;20037;-56
2021/05/22 05:06:34;;;;;;;1.60;1.50;;;;;;;7.14;88.09;95551.53;5013405;28;20014;-56
2021/05/22 05:09:00;;;;;;;2.67;1.70;;;;;;;7.26;87.86;95550.50;5015371;28;20033;-57
2021/05/22 05:11:25;;;;;;;1.80;1.70;;;;;;;7.33;87.83;95539.56;5009003;28;20029;-56
2021/05/22 05:13:51;;;;;;;1.70;1.60;;;;;;;7.40;87.34;95544.13;5012707;28;20128;-58
2021/05/22 05:16:17;;;;;;;1.70;1.27;;;;;;;7.43;87.24;95540.44;5010142;28;20022;-56
2021/05/22 05:18:43;;;;;;;2.63;1.80;;;;;;;7.62;86.95;95534.50;5011152;28;20514;-57
2021/05/22 05:21:09;;;;;;;2.30;1.70;;;;;;;7.63;87.10;95538.81;5005200;28;20033;-57
2021/05/22 05:23:35;;;;;;;3.63;1.88;;;;;;;7.70;87.65;95539.97;5013790;28;20041;-56
2021/05/22 05:26:01;;;;;;;3.53;1.75;;;;;;;7.77;87.71;95549.91;5013019;28;20075;-57
2021/05/22 05:28:26;;;;;;;1.60;1.50;;;;;;;7.93;87.16;95550.31;5009196;28;20022;-57
2021/05/22 05:30:52;;;;;;;1.23;1.23;;;;;;;8.02;86.14;95544.28;5003728;28;20099;-57
2021/05/22 05:33:17;;;;;;;2.72;2.00;;;;;;;8.16;85.80;95550.97;5010862;28;20026;-57
2021/05/22 05:35:43;;;;;;;2.88;2.65;;;;;;;8.27;85.17;95542.19;5012290;28;20030;-57
2021/05/22 05:38:08;;;;;;;1.70;1.60;;;;;;;8.32;83.89;95545.28;5012571;28;20022;-55
2021/05/22 05:40:34;;;;;;;1.95;1.55;;;;;;;8.21;84.16;95550.59;5016280;28;20018;-56
2021/05/22 05:43:02;;;;;;;1.70;1.60;;;;;;;8.32;84.58;95555.75;5013810;28;20017;-58
2021/05/22 05:45:28;;;;;;;1.65;1.50;;;;;;;8.45;83.74;95559.94;5002702;28;20113;-58
2021/05/22 05:47:56;;;;;;;3.95;1.50;;;;;;;8.64;82.71;95556.59;4999516;28;20080;-59
2021/05/22 05:50:22;;;;;;;2.50;1.60;;;;;;;8.81;81.30;95556.91;5000210;28;20022;-54
2021/05/22 05:52:47;;;;;;;1.90;1.80;;;;;;;8.80;82.13;95547.38;5014682;28;20058;-59
2021/05/22 05:55:13;;;;;;;1.67;1.50;;;;;;;8.91;81.29;95535.94;5001554;28;20445;-58
2021/05/22 05:57:38;;;;;;;1.63;1.50;;;;;;;9.14;81.97;95541.78;5009849;28;20037;-59
2021/05/22 06:00:06;;;;;;;1.70;1.60;;;;;;;9.35;81.73;95544.28;5019018;28;20041;-58
2021/05/22 06:02:32;;;;;;;1.63;1.50;;;;;;;9.40;80.86;95551.75;5018758;28;20072;-58
2021/05/22 06:04:57;;;;;;;1.50;1.40;;;;;;;9.39;79.84;95547.47;5018310;28;20026;-57
2021/05/22 06:07:23;;;;;;;1.50;1.40;;;;;;;9.46;79.99;95545.94;5016936;28;20081;-57
2021/05/22 06:09:48;;;;;;;1.17;1.17;;;;;;;9.64;78.29;95546.06;5006331;28;20105;-55
2021/05/22 06:12:14;;;;;;;1.77;1.42;;;;;;;9.71;77.45;95552.44;5006001;28;20117;-57
2021/05/22 06:14:43;;;;;;;1.50;1.40;;;;;;;9.98;76.55;95547.41;5015086;28;20060;-58
2021/05/22 06:17:08;;;;;;;1.40;1.30;;;;;;;10.37;75.32;95546.47;5006635;28;20026;-60
2021/05/22 06:19:34;;;;;;;1.08;1.08;;;;;;;10.86;75.35;95541.00;5009737;28;20569;-57
2021/05/22 06:22:00;;;;;;;2.13;1.88;;;;;;;11.64;72.56;95544.06;5011152;28;20033;-57
2021/05/22 06:24:25;;;;;;;2.63;2.28;;;;;;;11.79;70.86;95541.69;5004490;28;20034;-55
2021/05/22 06:26:53;;;;;;;2.08;1.90;;;;;;;11.74;70.20;95552.72;5009282;28;20026;-57
2021/05/22 06:29:19;;;;;;;2.20;1.67;;;;;;;12.01;69.82;95546.50;5010915;28;20018;-56
2021/05/22 06:31:45;;;;;;;2.03;1.45;;;;;;;12.67;65.32;95553.97;5009084;28;20540;-56
2021/05/22 06:34:10;;;;;;;1.42;1.30;;;;;;;13.30;64.16;95556.31;5015197;28;20026;-55
2021/05/22 06:36:36;;;;;;;1.90;1.42;;;;;;;13.94;61.93;95566.31;5007525;28;20442;-56
2021/05/22 06:39:02;;;;;;;3.67;2.20;;;;;;;14.21;59.00;95566.97;5014567;28;20076;-57
2021/05/22 06:41:28;;;;;;;1.83;1.50;;;;;;;14.26;59.75;95559.38;5017157;28;20014;-56
2021/05/22 06:43:54;;;;;;;2.25;1.70;;;;;;;14.82;58.70;95555.91;5008753;28;20101;-58
2021/05/22 06:48:46;;;;;;;1.05;1.00;;;;;;;14.96;56.89;95545.59;5006420;28;20030;-58
2021/05/22 06:51:11;;;;;;;1.30;1.20;;;;;;;15.41;56.06;95536.06;5010521;28;20053;-58
2021/05/22 06:53:37;;;;;;;2.35;1.00;;;;;;;15.90;53.04;95547.34;5014661;28;20014;-58
2021/05/22 06:56:03;;;;;;;1.50;1.40;;;;;;;15.76;54.25;95547.06;5006592;28;20382;-58
2021/05/22 06:58:29;;;;;;;1.02;0.93;;;;;;;15.41;54.44;95551.13;5010271;28;20026;-57
2021/05/22 07:00:56;;;;;;;2.67;1.10;;;;;;;15.69;53.86;95538.16;5006842;28;20033;-57
2021/05/22 07:03:22;;;;;;;1.15;1.05;;;;;;;16.63;50.88;95530.84;5010535;28;20036;-58
2021/05/22 07:05:49;;;;;;;2.92;1.20;;;;;;;16.53;51.50;95530.28;5007132;28;20097;-58
2021/05/22 07:08:16;;;;;;;1.27;1.17;;;;;;;16.74;51.19;95537.53;5013507;28;20092;-59
2021/05/22 07:10:42;;;;;;;1.00;1.00;;;;;;;16.50;52.49;95530.66;5008217;28;20029;-59
2021/05/22 07:13:07;;;;;;;1.20;1.10;;;;;;;15.23;52.10;95535.50;5008702;28;20105;-59
2021/05/22 07:15:33;;;;;;;1.10;1.00;;;;;;;16.85;47.62;95528.28;5011884;28;20053;-58
2021/05/22 07:17:58;;;;;;;1.23;1.00;;;;;;;16.47;50.51;95530.00;5014676;28;20440;-59
2021/05/22 07:20:24;;;;;;;1.00;1.00;;;;;;;17.23;44.78;95535.28;5012997;28;20097;-59
2021/05/22 07:22:51;;;;;;;1.15;1.13;;;;;;;16.33;48.27;95526.34;5026549;28;20036;-58
2021/05/22 07:25:18;;;;;;;3.33;1.23;;;;;;;16.53;51.10;95527.63;5017799;28;20493;-58
2021/05/22 07:27:44;;;;;;;1.00;1.00;;;;;;;17.19;49.04;95534.81;5015007;28;20072;-58
2021/05/22 07:30:11;;;;;;;2.58;1.33;;;;;;;17.54;46.80;95524.34;5021675;28;20402;-59
2021/05/22 07:32:39;;;;;;;1.58;1.10;;;;;;;17.62;46.41;95531.41;5017591;28;20022;-59
2021/05/22 07:35:06;;;;;;;1.25;0.90;;;;;;;16.99;49.80;95529.28;5016596;28;20022;-58
2021/05/22 07:37:32;;;;;;;0.93;0.93;;;;;;;17.27;49.65;95537.38;5007957;28;20026;-58
2021/05/22 07:39:57;;;;;;;2.53;1.00;;;;;;;17.41;47.85;95543.69;5007176;28;20053;-58
2021/05/22 07:42:27;;;;;;;1.02;0.98;;;;;;;17.59;46.22;95543.25;5003027;28;20030;-59
2021/05/22 07:44:53;;;;;;;1.10;1.10;;;;;;;17.26;47.36;95534.91;5005945;28;20053;-59
2021/05/22 07:47:19;;;;;;;4.38;1.17;;;;;;;17.61;46.33;95543.88;5016606;28;20042;-59
2021/05/22 07:49:45;;;;;;;1.70;1.52;;;;;;;17.64;46.16;95532.03;5016950;28;20389;-59
2021/05/22 07:52:11;;;;;;;2.20;2.10;;;;;;;17.83;43.19;95527.88;5012782;28;20069;-58
2021/05/22 07:54:41;;;;;;;2.33;2.13;;;;;;;16.89;46.85;95525.03;5014528;28;20029;-59
2021/05/22 07:57:09;;;;;;;1.95;1.75;;;;;;;17.31;46.05;95517.38;5015032;28;20033;-59
2021/05/22 07:59:35;;;;;;;1.70;1.60;;;;;;;17.72;43.70;95510.59;5013590;28;20061;-59
2021/05/22 08:02:01;;;;;;;1.10;1.10;;;;;;;17.36;42.75;95502.66;5014795;28;20029;-59
2021/05/22 08:04:27;;;;;;;4.55;1.42;;;;;;;16.75;48.76;95504.63;5013361;28;20478;-59
2021/05/22 08:06:52;;;;;;;1.23;1.23;;;;;;;17.41;45.70;95511.75;5014233;28;20030;-59
2021/05/22 08:09:18;;;;;;;1.50;1.40;;;;;;;17.75;42.61;95509.41;5014537;28;20026;-59
2021/05/22 08:11:44;;;;;;;1.33;1.20;;;;;;;17.86;43.51;95508.88;5016443;28;20033;-59
2021/05/22 08:14:10;;;;;;;1.25;1.15;;;;;;;18.11;41.39;95500.47;5016685;28;20025;-59
2021/05/22 08:16:37;;;;;;;0.80;0.80;;;;;;;18.00;39.74;95501.78;5017468;28;20030;-59
2021/05/22 08:19:03;;;;;;;1.15;1.10;;;;;;;18.08;41.68;95513.38;5008788;28;20056;-59
2021/05/22 08:21:29;;;;;;;0.98;0.98;;;;;;;17.78;42.64;95510.84;5000322;28;20037;-59
2021/05/22 08:23:55;;;;;;;1.05;1.00;;;;;;;17.86;42.65;95500.06;5006895;28;20030;-59
2021/05/22 08:26:22;;;;;;;2.15;1.10;;;;;;;17.62;42.01;95512.75;5009681;28;20034;-60
2021/05/22 08:28:48;;;;;;;1.30;1.30;;;;;;;17.88;43.00;95517.47;5013199;28;20036;-59
2021/05/22 08:31:14;;;;;;;3.03;1.42;;;;;;;17.84;42.44;95518.06;5004466;28;20474;-59
2021/05/22 08:33:40;;;;;;;1.10;1.10;;;;;;;17.29;43.45;95514.06;5007324;28;20037;-59
2021/05/22 08:36:07;;;;;;;1.35;1.25;;;;;;;17.15;46.08;95518.44;5008949;28;20034;-59
2021/05/22 08:38:32;;;;;;;3.13;1.30;;;;;;;17.69;42.35;95523.47;5014381;28;20084;-59
2021/05/22 08:41:00;;;;;;;5.22;1.20;;;;;;;17.60;42.94;95517.47;5007656;28;20037;-59
2021/05/22 08:43:26;;;;;;;3.28;1.00;;;;;;;17.74;42.96;95516.53;5012363;28;20045;-59
2021/05/22 08:45:52;;;;;;;1.20;1.10;;;;;;;18.07;41.60;95517.88;5010986;28;20069;-59
2021/05/22 08:48:20;;;;;;;1.00;1.00;;;;;;;17.30;44.30;95525.53;5008435;28;20101;-60
2021/05/22 08:50:47;;;;;;;1.67;0.82;;;;;;;18.14;42.99;95520.59;5006884;28;20030;-59
2021/05/22 08:53:13;;;;;;;0.82;0.82;;;;;;;18.30;42.97;95504.31;5007304;28;20026;-59
2021/05/22 08:55:39;;;;;;;0.98;0.80;;;;;;;18.31;41.50;95510.44;5010230;28;20585;-59
2021/05/22 08:58:05;;;;;;;0.73;0.73;;;;;;;17.97;42.11;95515.50;5004438;28;20529;-59
2021/05/22 09:00:38;;;;;;;0.77;0.77;;;;;;;17.98;40.41;95527.81;5020445;28;20042;-59
2021/05/22 09:03:05;;;;;;;0.80;0.80;;;;;;;17.47;42.71;95531.47;5006866;28;20034;-59
2021/05/22 09:05:31;;;;;;;1.23;1.10;;;;;;;16.85;43.97;95533.59;5003508;28;20069;-59
2021/05/22 09:07:59;;;;;;;1.17;1.08;;;;;;;16.86;43.85;95529.91;5008924;28;20084;-60
2021/05/22 09:10:34;;;;;;;0.70;0.70;;;;;;;16.72;43.00;95532.38;5006177;28;20067;-59
2021/05/22 09:13:08;;;;;;;1.00;0.90;;;;;;;17.15;42.55;95536.22;5005397;28;20084;-59
2021/05/22 09:15:38;;;;;;;2.40;0.85;;;;;;;16.95;42.97;95525.31;5005593;28;20045;-60
2021/05/22 09:18:10;;;;;;;0.85;0.85;;;;;;;17.56;41.47;95510.84;5003602;28;20045;-59
2021/05/22 09:20:41;;;;;;;0.73;0.73;;;;;;;16.89;44.98;95514.41;5004521;28;20057;-60
2021/05/22 09:23:15;;;;;;;0.90;0.90;;;;;;;17.28;41.85;95509.78;5009124;28;20459;-60
2021/05/22 09:25:45;;;;;;;0.90;0.90;;;;;;;17.66;41.92;95514.03;5015215;28;20034;-60
2021/05/22 09:28:13;;;;;;;0.90;0.90;;;;;;;17.68;41.52;95519.13;5005365;28;20034;-59
2021/05/22 09:30:41;;;;;;;1.30;0.90;;;;;;;18.03;42.51;95525.44;5013066;28;20033;-59
2021/05/22 09:33:16;;;;;;;1.30;0.88;;;;;;;18.40;41.74;95524.44;5013143;28;20033;-60
2021/05/22 09:35:49;;;;;;;4.47;1.10;;;;;;;17.59;41.44;95508.63;5014145;28;20045;-60
2021/05/22 09:38:15;;;;;;;1.60;1.30;;;;;;;18.21;40.79;95513.44;5005550;28;20029;-59
2021/05/22 09:40:42;;;;;;;1.40;1.30;;;;;;;18.16;41.87;95518.56;5001430;28;20030;-59
2021/05/22 09:43:09;;;;;;;1.30;1.20;;;;;;;18.81;40.85;95525.50;5001935;28;20049;-60
2021/05/22 09:45:41;;;;;;;0.95;0.95;;;;;;;18.61;40.31;95516.38;5003481;28;20025;-60
2021/05/22 09:48:20;;;;;;;1.70;1.60;;;;;;;18.71;39.51;95504.53;5003300;28;20157;-59
2021/05/22 09:50:50;;;;;;;4.78;1.20;;;;;;;18.04;42.69;95519.09;5007397;28;20091;-59
2021/05/22 09:53:25;;;;;;;3.13;1.58;;;;;;;19.06;38.34;95520.50;5007974;28;20486;-59
2021/05/22 09:56:15;;;;;;;5.07;1.42;;;;;;;18.13;40.50;95513.63;5014587;28;20026;-60
2021/05/22 09:58:47;;;;;;;3.63;1.50;;;;;;;18.40;40.34;95513.78;5024875;28;20042;-61
2021/05/22 10:01:14;;;;;;;2.42;1.52;;;;;;;17.88;40.38;95508.69;5020340;28;20018;-61
2021/05/22 10:03:39;;;;;;;2.15;1.17;;;;;;;18.82;39.24;95505.81;5017189;28;20113;-61
2021/05/22 10:06:05;;;;;;;1.88;1.25;;;;;;;19.03;39.70;95504.91;5018638;28;20061;-60
2021/05/22 10:08:31;;;;;;;1.10;1.10;;;;;;;18.83;38.68;95510.13;5018182;28;20036;-60
2021/05/22 10:10:58;;;;;;;1.83;0.90;;;;;;;18.81;39.88;95505.00;5015719;28;20025;-61
2021/05/22 10:13:25;;;;;;;1.63;1.10;;;;;;;18.47;39.96;95504.00;5014271;28;20032;-61
2021/05/22 10:15:55;;;;;;;1.77;0.88;;;;;;;18.27;40.04;95514.53;5018482;28;20032;-61
2021/05/22 10:18:23;;;;;;;0.90;0.90;;;;;;;17.30;41.68;95506.91;5017921;28;20060;-61
2021/05/22 10:20:49;;;;;;;1.40;1.30;;;;;;;17.99;39.45;95497.50;5008534;28;20380;-61
2021/05/22 10:23:17;;;;;;;1.00;1.00;;;;;;;18.21;39.49;95500.13;5010938;28;20135;-60
2021/05/22 10:25:43;;;;;;;1.90;1.05;;;;;;;18.19;39.08;95512.81;5008186;28;20022;-60
2021/05/22 10:28:09;;;;;;;1.73;1.60;;;;;;;18.37;39.77;95516.84;5015333;28;20524;-61
2021/05/22 10:30:36;;;;;;;1.90;1.20;;;;;;;18.59;39.02;95506.94;5004752;28;20064;-61
2021/05/22 10:33:12;;;;;;;2.15;1.15;;;;;;;18.36;40.32;95512.53;5016772;28;20682;-61
2021/05/22 10:35:52;;;;;;;2.30;1.08;;;;;;;18.52;38.00;95516.72;5009145;28;20025;-61
2021/05/22 10:38:32;;;;;;;1.20;1.10;;;;;;;18.71;38.70;95509.88;5012262;28;20019;-61
2021/05/22 10:40:59;;;;;;;4.22;1.10;;;;;;;19.08;39.31;95514.97;5011931;28;20057;-61
2021/05/22 10:43:58;;;;;;;0.77;0.77;;;;;;;19.37;37.45;95503.16;5008134;28;20096;-61
2021/05/22 10:46:24;;;;;;;1.30;1.30;;;;;;;19.40;38.50;95500.09;5002603;28;20034;-61
2021/05/22 10:48:51;;;;;;;13.05;11.80;;;;;;;19.28;38.22;95509.69;5017935;28;20017;-62
2021/05/22 10:51:32;;;;;;;2.10;1.40;;;;;;;19.94;36.47;95512.72;5013916;28;20034;-61
2021/05/22 10:54:00;;;;;;;1.48;1.38;;;;;;;19.79;36.26;95520.91;5014193;28;20029;-63
2021/05/22 10:56:26;;;;;;;1.40;1.40;;;;;;;19.88;37.07;95514.31;5011409;28;20105;-68
2021/05/22 10:58:58;;;;;;;0.80;0.80;;;;;;;19.86;35.41;95522.53;5014903;28;20041;-69
2021/05/22 11:01:23;;;;;;;1.08;1.08;;;;;;;19.86;37.42;95517.19;5006009;28;20121;-69
2021/05/22 11:04:08;;;;;;;5.00;1.00;;;;;;;19.60;37.25;95518.81;5011220;28;20111;-67
2021/05/22 11:06:51;;;;;;;37.70;34.55;;;;;;;19.81;35.93;95510.81;5009135;28;20056;-66
2021/05/22 11:09:27;;;;;;;194.60;177.38;;;;;;;20.26;36.84;95504.88;5007520;28;20439;-69
2021/05/22 11:12:29;;;;;;;57.55;51.70;;;;;;;20.18;35.94;95495.22;5005594;28;20108;-69
2021/05/22 11:14:55;;;;;;;49.88;45.33;;;;;;;20.70;36.87;95489.97;5007641;28;20030;-68
2021/05/22 11:17:21;;;;;;;26.23;23.90;;;;;;;20.83;35.69;95489.13;5007613;28;20499;-68
2021/05/22 11:20:10;;;;;;;98.30;88.20;;;;;;;21.71;32.70;95489.50;5010120;28;20030;-68
2021/05/22 11:22:55;;;;;;;119.60;108.88;;;;;;;21.28;33.62;95487.47;5006148;28;20044;-62
2021/05/22 11:25:53;;;;;;;177.43;158.73;;;;;;;20.70;34.79;95489.16;5015731;28;20094;-62
2021/05/22 11:28:21;;;;;;;84.18;77.05;;;;;;;20.57;35.06;95490.81;5013425;28;20041;-61
2021/05/22 11:30:55;;;;;;;168.43;153.98;;;;;;;20.14;37.02;95477.97;5009490;28;20561;-61
2021/05/22 11:33:23;;;;;;;7.13;6.40;;;;;;;20.78;34.18;95483.56;5009367;28;20030;-60
2021/05/22 11:35:56;;;;;;;5.47;4.35;;;;;;;20.62;37.52;95476.84;5015244;28;20029;-59
2021/05/22 11:38:21;;;;;;;4.63;1.60;;;;;;;20.29;38.25;95473.22;5015651;28;20026;-56
2021/05/22 11:40:51;;;;;;;2.92;1.00;;;;;;;20.76;36.45;95474.94;5000662;28;20026;-59